Jim Hamilton L.B. Owens Airport
KCUB : now visible

Airfield :











YOU CAN JOIN US ON...

 
LOGIN :

Register | Disclaimer

   EN    FR    IT 

 









Legend :    VFR   Marginal VFR   IFR   Intensive IFR   Very Intensive IFR
Visi :
Ceiling :
>= 8 km
>= 3000ft
5 to 8 km
1000 to 3000 ft
1500m to 5 km
500 to 1000 ft
800 to 1500m
200 to 500 ft
< 800m
< 200 ft
Symbols :   Thunderstorms  Fog  Heavy snow  Heavy precipitations  Wind > 20 kt






- Airport Elevation : 193 ft


KCUB - Jim Hamilton L.B. Owens

CURRENT METAR :
  • 192353Z AUTO 00000KT 10SM CLR 28/17 A2994 RMK AO2 SLP138 T02830167 10311 20272 53003

EXPIRED METARs :
  • 192253Z AUTO 22006KT 10SM CLR 29/17 A2993 RMK AO2 SLP133 T02940167
  • 192153Z AUTO 27010KT 10SM CLR 31/16 A2993 RMK AO2 SLP133 T03110156
  • 192053Z AUTO 27008KT 10SM SCT060 30/16 A2993 RMK AO2 SLP135 T03000156 56015
  • 191953Z AUTO 27010G20KT 10SM CLR 30/16 A2994 RMK AO2 SLP137 T03000161

TAF KCUB
Valid from the 20 at 00:00 until the 21 at 00:00 UTC


192339Z 2000/2024 23006KT P6SM SCT050 BKN200
FM200200 VRB03KT P6SM BKN200
FM201400 35005KT P6SM BKN200
KZJX FIR / North America



MET'MAP, your aeronautical weather chart ! - Copyright ORBIFLY December 2007 - Disclaimer

ORBIFLY MET'MAP TEAM :

Programming & Development : Alexandra Zaïnal
Original concept : Baudouin d'Aumeries
Technical & hardware support : Manuel Goepfert
Assistance : Marc-Olivier Méhu




SOURCES & CREDITS :

   NOAA       Earth
Advisory